Time;durP1;ratioP1;P1;durP2;ratioP2;P2;SDS_P1;SDS_P2;PMS_P1;PMS_P2;Temp;Humidity;BMP_temperature;BMP_pressure;BME280_temperature;BME280_humidity;BME280_pressure;Samples;Min_cycle;Max_cycle;Signal;HPM_P1;HPM_P2
2022/07/18 00:03:08;;;;;;;5.60;2.00;;;14.90;1.00;;;;;;10464912;28;20223;-80
2022/07/18 00:08:29;;;;;;;5.40;1.88;;;14.80;10.00;;;;;;10484736;28;20398;-86
2022/07/18 00:13:51;;;;;;;5.53;1.92;;;14.90;20.60;;;;;;10483491;28;20229;-79
2022/07/18 00:19:13;;;;;;;8.43;2.38;;;14.90;25.40;;;;;;10509841;28;20247;-82
2022/07/18 00:24:34;;;;;;;7.20;2.05;;;14.80;41.10;;;;;;10481717;28;20226;-81
2022/07/18 00:29:56;;;;;;;4.50;1.80;;;14.80;52.30;;;;;;10481631;28;20231;-79
2022/07/18 00:35:17;;;;;;;5.03;2.15;;;14.70;77.10;;;;;;10481178;28;20448;-79
2022/07/18 00:40:38;;;;;;;8.80;1.90;;;14.70;94.80;;;;;;10495300;28;20188;-83
2022/07/18 00:46:00;;;;;;;7.38;1.95;;;14.70;95.60;;;;;;10522590;28;20456;-83
2022/07/18 00:51:22;;;;;;;6.90;2.72;;;14.70;99.90;;;;;;10492951;28;20504;-85
2022/07/18 00:56:45;;;;;;;4.82;1.83;;;14.60;99.90;;;;;;10483263;28;20274;-86
2022/07/18 01:02:06;;;;;;;3.78;2.05;;;14.60;99.90;;;;;;10482647;28;20429;-84
2022/07/18 01:07:27;;;;;;;6.45;2.40;;;14.60;99.90;;;;;;10479738;28;20559;-82
2022/07/18 01:12:49;;;;;;;5.75;2.50;;;14.60;99.90;;;;;;10479104;28;20236;-84
2022/07/18 01:18:10;;;;;;;3.47;2.13;;;14.60;99.90;;;;;;10482248;28;20234;-84
2022/07/18 01:23:31;;;;;;;4.10;2.10;;;14.60;99.90;;;;;;10462172;28;20271;-83
2022/07/18 01:28:54;;;;;;;6.28;2.13;;;14.50;99.90;;;;;;10479474;28;20206;-81
2022/07/18 01:34:23;;;;;;;10.50;2.40;;;14.50;99.90;;;;;;10479536;28;20190;-79
2022/07/18 01:39:46;;;;;;;4.88;2.42;;;14.40;99.90;;;;;;10478704;28;20222;-86
2022/07/18 01:45:08;;;;;;;5.43;2.20;;;14.40;99.90;;;;;;10480009;28;20248;-84
2022/07/18 01:50:29;;;;;;;4.80;2.60;;;14.30;99.90;;;;;;10492410;28;20243;-84
2022/07/18 01:55:51;;;;;;;3.95;2.00;;;14.30;99.90;;;;;;10478588;28;20360;-80
2022/07/18 02:01:13;;;;;;;3.08;1.77;;;14.30;99.90;;;;;;10479168;28;20226;-87
2022/07/18 02:06:34;;;;;;;5.10;2.00;;;14.30;99.90;;;;;;10450133;28;20413;-84
2022/07/18 02:11:56;;;;;;;4.70;2.47;;;14.30;99.90;;;;;;10448692;28;20332;-83
2022/07/18 02:17:19;;;;;;;4.32;2.25;;;14.30;99.90;;;;;;10477185;28;20531;-80
2022/07/18 02:22:41;;;;;;;6.40;2.63;;;14.30;99.90;;;;;;10464806;28;20231;-85
2022/07/18 02:28:03;;;;;;;10.80;3.35;;;14.30;99.90;;;;;;10477186;28;20196;-86
2022/07/18 02:33:24;;;;;;;7.57;2.72;;;14.30;99.90;;;;;;10479217;28;20271;-86
2022/07/18 02:38:45;;;;;;;4.00;2.10;;;14.20;99.90;;;;;;10476726;28;20230;-86
2022/07/18 02:44:07;;;;;;;5.82;2.75;;;14.30;99.90;;;;;;10491387;28;20196;-85
2022/07/18 02:49:28;;;;;;;7.05;2.65;;;14.30;99.90;;;;;;10476446;28;20206;-84
2022/07/18 02:54:49;;;;;;;8.43;2.88;;;14.30;99.90;;;;;;10477027;28;20484;-80
2022/07/18 03:00:13;;;;;;;5.50;2.50;;;14.40;99.90;;;;;;10479195;28;20552;-81
2022/07/18 03:05:35;;;;;;;7.38;2.70;;;14.40;99.90;;;;;;10479288;28;20201;-84
2022/07/18 03:10:56;;;;;;;4.50;2.50;;;14.40;99.90;;;;;;10461759;28;20237;-86
2022/07/18 03:16:18;;;;;;;9.05;2.40;;;14.50;99.90;;;;;;10476553;28;20225;-85
2022/07/18 03:21:39;;;;;;;8.05;2.58;;;14.50;99.90;;;;;;10468944;28;20206;-82
2022/07/18 03:27:01;;;;;;;8.00;2.80;;;14.60;99.90;;;;;;10476096;28;20203;-81
2022/07/18 03:32:22;;;;;;;7.88;2.60;;;14.60;99.90;;;;;;10476057;28;20193;-81
2022/07/18 03:37:44;;;;;;;7.75;2.67;;;14.80;99.90;;;;;;10462038;28;20241;-79
2022/07/18 03:43:05;;;;;;;6.22;2.80;;;14.80;99.90;;;;;;10476008;28;20433;-79
2022/07/18 03:48:26;;;;;;;8.00;3.00;;;14.90;99.90;;;;;;10483220;28;20522;-83
2022/07/18 03:53:47;;;;;;;8.52;2.50;;;14.90;99.90;;;;;;10482941;28;20188;-85
2022/07/18 03:59:08;;;;;;;6.00;3.03;;;14.90;99.90;;;;;;10467753;28;20218;-84
2022/07/18 04:04:30;;;;;;;4.97;2.25;;;15.00;99.90;;;;;;10468583;28;20267;-80
2022/07/18 04:09:51;;;;;;;5.05;2.78;;;15.10;99.90;;;;;;10482910;28;20234;-81
2022/07/18 04:15:15;;;;;;;6.07;2.42;;;15.20;99.90;;;;;;10498421;28;20227;-82
2022/07/18 04:20:38;;;;;;;5.80;2.53;;;15.30;99.90;;;;;;10464736;28;20248;-81
2022/07/18 04:26:01;;;;;;;7.53;2.70;;;15.30;99.90;;;;;;10467635;28;20489;-82
2022/07/18 04:31:22;;;;;;;5.15;2.42;;;15.40;99.90;;;;;;10480935;28;20417;-80
2022/07/18 04:36:43;;;;;;;7.28;3.08;;;15.40;99.90;;;;;;10481322;28;20244;-81
2022/07/18 04:42:05;;;;;;;4.32;2.38;;;15.50;99.90;;;;;;10481668;28;20194;-79
2022/07/18 04:47:27;;;;;;;5.70;2.47;;;15.60;99.90;;;;;;10480450;28;20308;-79
2022/07/18 04:52:51;;;;;;;3.72;2.33;;;15.80;99.90;;;;;;10482936;28;20202;-80
2022/07/18 04:58:12;;;;;;;4.72;2.83;;;15.90;99.90;;;;;;10480059;28;20221;-80
2022/07/18 05:03:33;;;;;;;5.30;2.70;;;16.10;99.90;;;;;;10466269;28;20186;-85
2022/07/18 05:08:55;;;;;;;3.95;2.40;;;16.30;99.90;;;;;;10479163;28;20248;-82
2022/07/18 05:14:16;;;;;;;7.95;2.08;;;16.40;99.90;;;;;;10507964;28;20218;-82
2022/07/18 05:19:37;;;;;;;5.18;2.20;;;16.60;99.90;;;;;;10472716;28;20542;-81
2022/07/18 05:24:59;;;;;;;6.55;2.42;;;16.70;99.90;;;;;;10496085;28;20203;-80
2022/07/18 05:30:22;;;;;;;5.47;2.75;;;16.80;99.90;;;;;;10478612;28;20194;-81
2022/07/18 05:35:44;;;;;;;6.40;3.53;;;16.90;99.90;;;;;;10478833;28;20223;-78
2022/07/18 05:41:06;;;;;;;4.47;2.40;;;16.90;99.90;;;;;;10464050;28;20198;-80
2022/07/18 05:46:27;;;;;;;7.40;2.65;;;16.90;99.90;;;;;;10479219;28;20189;-80
2022/07/18 05:51:49;;;;;;;6.85;2.78;;;17.00;99.90;;;;;;10478537;28;20285;-80
2022/07/18 05:57:13;;;;;;;6.25;2.22;;;17.10;99.90;;;;;;10477323;28;20256;-82
2022/07/18 06:02:34;;;;;;;5.97;2.90;;;17.10;99.90;;;;;;10477961;28;20218;-80
2022/07/18 06:07:56;;;;;;;5.28;2.72;;;17.10;99.90;;;;;;10476556;28;20194;-79
2022/07/18 06:13:18;;;;;;;8.60;2.97;;;17.10;99.90;;;;;;10478264;28;20240;-81
2022/07/18 06:18:39;;;;;;;8.73;2.88;;;17.20;99.90;;;;;;10480208;28;20229;-76
2022/07/18 06:24:00;;;;;;;4.35;2.67;;;17.30;99.90;;;;;;10463080;28;20423;-79
2022/07/18 06:29:22;;;;;;;13.05;2.38;;;17.50;99.90;;;;;;10477505;28;20278;-80
2022/07/18 06:34:43;;;;;;;6.53;2.22;;;17.80;87.40;;;;;;10448861;28;20237;-79
2022/07/18 06:40:05;;;;;;;4.72;2.35;;;18.20;32.40;;;;;;10475809;28;20415;-81
2022/07/18 06:45:27;;;;;;;10.70;2.60;;;18.80;1.00;;;;;;10462317;28;20199;-79
2022/07/18 06:50:48;;;;;;;4.50;2.38;;;18.80;1.00;;;;;;10473707;28;20207;-79
2022/07/18 06:56:09;;;;;;;5.10;2.08;;;19.20;1.00;;;;;;10475641;28;20226;-82
2022/07/18 07:01:31;;;;;;;5.25;2.38;;;19.90;1.00;;;;;;10476260;28;20284;-80
2022/07/18 07:06:52;;;;;;;3.78;2.10;;;20.00;1.00;;;;;;10476452;28;20188;-80
2022/07/18 07:12:13;;;;;;;5.85;2.58;;;20.50;1.00;;;;;;10480016;28;20239;-80
2022/07/18 07:17:38;;;;;;;5.05;2.15;;;20.50;1.00;;;;;;10478183;28;20235;-82
2022/07/18 07:23:04;;;;;;;4.93;2.10;;;20.60;1.00;;;;;;10462251;28;20238;-86
2022/07/18 07:28:26;;;;;;;4.03;1.90;;;20.50;1.00;;;;;;10464847;28;20210;-84
2022/07/18 07:33:48;;;;;;;6.97;2.40;;;20.20;1.00;;;;;;10450087;28;20528;-81
2022/07/18 07:39:09;;;;;;;6.53;2.67;;;20.10;1.00;;;;;;10470781;28;20228;-81
2022/07/18 07:44:30;;;;;;;8.05;2.40;;;20.20;1.00;;;;;;10479472;28;20191;-80
2022/07/18 07:49:52;;;;;;;5.10;2.20;;;20.10;1.00;;;;;;10480440;28;20196;-81
2022/07/18 07:55:13;;;;;;;4.53;2.08;;;20.10;1.00;;;;;;10477616;28;20188;-80
2022/07/18 08:00:34;;;;;;;7.28;2.10;;;20.00;1.00;;;;;;10476746;28;20239;-82
2022/07/18 08:05:55;;;;;;;4.78;2.03;;;20.00;1.00;;;;;;10479540;28;20420;-79
2022/07/18 08:11:17;;;;;;;7.03;2.08;;;19.90;1.00;;;;;;10491380;28;20231;-82
2022/07/18 08:16:38;;;;;;;9.35;2.63;;;19.90;1.00;;;;;;10478729;28;20235;-80
2022/07/18 08:22:00;;;;;;;5.63;2.00;;;19.80;1.00;;;;;;10477768;28;20295;-80
2022/07/18 08:27:21;;;;;;;6.78;2.20;;;19.80;1.00;;;;;;10479148;28;20422;-79
2022/07/18 08:32:42;;;;;;;8.90;2.58;;;19.80;1.00;;;;;;10477472;28;20250;-82
2022/07/18 08:38:04;;;;;;;7.20;2.30;;;19.90;1.00;;;;;;10476776;28;20239;-81
2022/07/18 08:43:26;;;;;;;4.70;2.42;;;20.00;1.00;;;;;;10475424;28;20184;-82
2022/07/18 08:48:48;;;;;;;4.20;2.35;;;20.50;1.00;;;;;;10478867;28;20526;-79
2022/07/18 08:54:10;;;;;;;9.52;2.15;;;21.10;1.00;;;;;;10460463;28;20275;-82
2022/07/18 08:59:32;;;;;;;5.03;2.03;;;21.50;1.00;;;;;;10474602;28;20466;-82
2022/07/18 09:04:53;;;;;;;4.63;1.80;;;21.40;1.00;;;;;;10477569;28;20208;-82
2022/07/18 09:10:50;;;;;;;6.05;2.47;;;21.30;99.90;;;;;;10479406;28;20239;-78
2022/07/18 09:16:13;;;;;;;4.50;2.00;;;21.40;1.00;;;;;;10480306;28;20210;-80
2022/07/18 09:21:37;;;;;;;4.85;2.17;;;22.10;99.90;;;;;;10486088;28;20287;-81
2022/07/18 09:26:58;;;;;;;5.68;2.33;;;22.30;99.90;;;;;;10476010;28;20221;-80
2022/07/18 09:32:23;;;;;;;5.93;2.25;;;23.00;99.90;;;;;;10474425;28;20199;-79
2022/07/18 09:37:54;;;;;;;7.13;3.35;;;22.80;99.90;;;;;;10473528;28;20238;-82
2022/07/18 09:43:18;;;;;;;2.83;2.00;;;22.50;99.90;;;;;;10472246;28;20222;-80
2022/07/18 09:48:40;;;;;;;5.15;2.42;;;22.30;99.90;;;;;;10476085;28;20267;-83
2022/07/18 09:54:02;;;;;;;3.92;2.03;;;22.30;99.90;;;;;;10473750;28;20192;-85
2022/07/18 09:59:24;;;;;;;6.45;2.33;;;22.30;99.90;;;;;;10460907;28;20298;-81
2022/07/18 10:04:46;;;;;;;2.17;1.52;;;22.30;99.90;;;;;;10457606;28;20271;-81
2022/07/18 10:10:08;;;;;;;7.28;2.60;;;22.50;99.90;;;;;;10472725;28;20234;-83
2022/07/18 10:15:33;;;;;;;5.80;2.53;;;22.30;99.90;;;;;;10460683;28;20192;-88
2022/07/18 10:21:02;;;;;;;4.07;2.58;;;21.90;99.90;;;;;;10452713;28;20576;-82
2022/07/18 10:26:25;;;;;;;6.00;2.55;;;21.90;99.90;;;;;;10506492;28;20250;-80
2022/07/18 10:32:03;;;;;;;3.88;1.85;;;21.80;99.90;;;;;;10498302;28;20207;-79
2022/07/18 10:37:25;;;;;;;2.70;1.90;;;21.50;99.90;;;;;;10472858;28;20560;-81
2022/07/18 10:43:25;;;;;;;10.23;2.60;;;21.30;99.90;;;;;;10472039;28;20196;-77
2022/07/18 10:48:53;;;;;;;3.92;2.30;;;21.50;99.90;;;;;;10457205;28;20200;-80
2022/07/18 10:54:14;;;;;;;4.32;2.20;;;21.90;99.90;;;;;;10449966;28;20487;-81
2022/07/18 10:59:36;;;;;;;7.03;1.95;;;22.00;99.90;;;;;;10479057;28;20223;-82
2022/07/18 11:04:57;;;;;;;4.85;2.00;;;21.90;99.90;;;;;;10439713;28;20275;-81
2022/07/18 11:10:50;;;;;;;4.00;1.90;;;21.80;99.90;;;;;;10487850;28;20235;-82
2022/07/18 11:16:24;;;;;;;7.57;3.13;;;21.80;99.90;;;;;;10479294;28;20227;-88
2022/07/18 11:21:47;;;;;;;3.95;2.15;;;21.70;99.90;;;;;;10478059;28;20283;-83
2022/07/18 11:27:08;;;;;;;2.60;1.60;;;22.00;99.90;;;;;;10476338;28;20214;-80
2022/07/18 11:32:29;;;;;;;4.53;1.83;;;22.00;99.90;;;;;;10479276;28;20241;-83
2022/07/18 11:37:51;;;;;;;5.97;1.80;;;22.10;99.90;;;;;;10478159;28;20269;-84
2022/07/18 11:43:20;;;;;;;4.50;2.20;;;22.10;99.90;;;;;;10464157;28;20396;-84
2022/07/18 11:48:44;;;;;;;2.92;1.75;;;22.40;99.90;;;;;;10462999;28;20213;-83
2022/07/18 11:54:06;;;;;;;4.78;1.77;;;23.00;34.90;;;;;;10480848;28;20238;-81
2022/07/18 11:59:43;;;;;;;2.70;1.88;;;23.00;1.00;;;;;;10478784;28;20254;-84
2022/07/18 12:05:05;;;;;;;5.57;2.25;;;23.40;1.00;;;;;;10478445;28;20196;-84
2022/07/18 12:10:28;;;;;;;3.58;2.03;;;23.60;1.00;;;;;;10476888;28;20242;-83
2022/07/18 12:15:49;;;;;;;6.95;2.30;;;23.60;1.00;;;;;;10472834;28;20326;-82
2022/07/18 12:21:11;;;;;;;2.40;1.80;;;23.30;1.00;;;;;;10476494;28;20297;-86
2022/07/18 12:26:32;;;;;;;5.25;2.30;;;22.90;1.00;;;;;;10453945;28;20196;-81
2022/07/18 12:32:15;;;;;;;2.95;1.85;;;22.80;2.60;;;;;;10447792;28;20235;-87
2022/07/18 12:37:37;;;;;;;6.13;1.90;;;22.80;1.00;;;;;;10486507;28;20228;-84
2022/07/18 12:43:07;;;;;;;5.25;2.45;;;23.10;1.00;;;;;;10477683;28;20729;-81
2022/07/18 12:48:30;;;;;;;3.13;2.10;;;23.30;1.00;;;;;;10475237;28;20282;-84
2022/07/18 12:53:52;;;;;;;2.90;1.77;;;23.30;1.00;;;;;;10476037;28;20198;-82
2022/07/18 12:59:13;;;;;;;5.93;2.05;;;23.10;18.90;;;;;;10454996;28;20304;-79
2022/07/18 13:04:35;;;;;;;3.63;1.77;;;23.30;1.00;;;;;;10472353;28;20200;-81
2022/07/18 13:09:56;;;;;;;4.00;1.70;;;23.50;1.00;;;;;;10470237;28;20250;-82
2022/07/18 13:15:20;;;;;;;2.85;1.77;;;23.80;1.00;;;;;;10458697;28;20270;-81
2022/07/18 13:20:42;;;;;;;4.22;1.88;;;23.70;1.00;;;;;;10472835;28;20246;-81
2022/07/18 13:26:03;;;;;;;3.80;1.80;;;23.70;1.00;;;;;;10458763;28;20208;-86
2022/07/18 13:31:24;;;;;;;2.80;1.60;;;23.70;1.00;;;;;;10517610;28;20205;-79
2022/07/18 13:36:48;;;;;;;7.55;3.00;;;23.80;1.00;;;;;;10499529;28;20495;-81
2022/07/18 13:42:09;;;;;;;3.03;1.63;;;23.70;1.00;;;;;;10459698;28;20203;-86
2022/07/18 13:47:31;;;;;;;2.53;1.50;;;23.60;1.00;;;;;;10473451;28;20223;-83
2022/07/18 13:52:52;;;;;;;2.80;1.45;;;23.60;1.00;;;;;;10445319;28;20274;-80
2022/07/18 13:58:13;;;;;;;2.13;1.65;;;23.60;1.00;;;;;;10468129;28;20215;-85
2022/07/18 14:03:37;;;;;;;2.80;1.45;;;23.40;1.00;;;;;;10458372;28;20442;-83
2022/07/18 14:08:58;;;;;;;4.95;2.85;;;23.10;1.00;;;;;;10461868;28;20195;-82
2022/07/18 14:14:20;;;;;;;3.42;1.92;;;22.80;1.00;;;;;;10490249;28;20195;-78
2022/07/18 14:19:41;;;;;;;2.97;1.58;;;22.60;1.00;;;;;;10460059;28;20235;-81
2022/07/18 14:25:05;;;;;;;5.88;1.55;;;22.30;1.00;;;;;;10457495;28;20287;-79
2022/07/18 14:30:26;;;;;;;5.70;2.78;;;22.10;1.00;;;;;;10474753;28;20199;-81
2022/07/18 14:35:47;;;;;;;9.43;5.50;;;22.00;23.00;;;;;;10486213;28;20198;-82
2022/07/18 14:41:09;;;;;;;7.40;2.40;;;21.90;99.90;;;;;;10457291;28;20227;-79
2022/07/18 14:46:30;;;;;;;3.17;1.40;;;21.90;99.90;;;;;;10472726;28;20246;-80
2022/07/18 14:51:52;;;;;;;2.85;1.90;;;21.90;99.90;;;;;;10474589;28;20206;-83
2022/07/18 14:57:16;;;;;;;4.07;1.55;;;21.80;99.90;;;;;;10446466;28;20286;-83
2022/07/18 15:02:38;;;;;;;5.00;1.92;;;21.80;99.90;;;;;;10446261;28;20200;-87
2022/07/18 15:08:00;;;;;;;1.85;1.60;;;21.70;99.90;;;;;;10469334;28;20263;-87
2022/07/18 15:13:21;;;;;;;3.00;2.10;;;21.60;99.90;;;;;;10494262;28;20243;-86
2022/07/18 15:18:43;;;;;;;3.08;1.98;;;21.50;1.00;;;;;;10494377;28;20307;-86
2022/07/18 15:24:06;;;;;;;3.92;1.63;;;21.40;1.00;;;;;;10475109;28;20195;-85
2022/07/18 15:29:28;;;;;;;2.90;1.58;;;21.20;1.00;;;;;;10487774;28;20270;-86
2022/07/18 15:34:50;;;;;;;2.97;1.65;;;21.00;1.00;;;;;;10473277;28;20188;-86
2022/07/18 15:40:11;;;;;;;2.63;1.55;;;20.90;1.00;;;;;;10461791;28;20529;-82
2022/07/18 15:45:32;;;;;;;3.92;2.00;;;20.70;1.00;;;;;;10469212;28;20275;-82
2022/07/18 15:50:54;;;;;;;4.13;1.90;;;20.60;1.00;;;;;;10483144;28;20204;-80
2022/07/18 15:56:15;;;;;;;1.70;1.60;;;20.60;1.00;;;;;;10482897;28;20195;-81
2022/07/18 16:01:37;;;;;;;3.30;1.98;;;20.50;1.00;;;;;;10468607;28;20548;-81
2022/07/18 16:06:58;;;;;;;2.78;2.20;;;20.40;1.00;;;;;;10482743;28;20187;-80
2022/07/18 16:12:20;;;;;;;4.78;2.47;;;20.30;1.00;;;;;;10481726;28;20242;-81
2022/07/18 16:17:41;;;;;;;4.72;2.80;;;20.30;1.00;;;;;;10501423;28;20242;-80
2022/07/18 16:23:02;;;;;;;5.70;2.20;;;20.40;1.00;;;;;;10482746;28;20206;-83
2022/07/18 16:28:24;;;;;;;4.57;2.65;;;20.30;1.00;;;;;;10482060;28;20184;-81
2022/07/18 16:33:45;;;;;;;6.15;2.20;;;20.40;1.00;;;;;;10467580;28;20422;-83
2022/07/18 16:39:07;;;;;;;3.83;2.40;;;20.40;1.00;;;;;;10481671;28;20290;-84
2022/07/18 16:44:28;;;;;;;3.95;2.78;;;20.40;1.00;;;;;;10481668;28;20234;-82
2022/07/18 16:49:50;;;;;;;5.13;2.63;;;20.30;1.00;;;;;;10482050;28;20505;-85
2022/07/18 16:55:12;;;;;;;7.82;2.80;;;20.30;1.00;;;;;;10466263;28;20505;-83
2022/07/18 17:00:34;;;;;;;3.92;2.60;;;20.30;1.00;;;;;;10482995;28;20219;-81
2022/07/18 17:05:58;;;;;;;5.30;2.90;;;20.20;1.00;;;;;;10469026;28;20390;-80
2022/07/18 17:11:20;;;;;;;5.10;3.58;;;20.10;1.00;;;;;;10479775;28;20224;-85
2022/07/18 17:16:41;;;;;;;5.88;3.60;;;20.00;1.00;;;;;;10475175;28;20202;-80
2022/07/18 17:22:03;;;;;;;8.23;3.30;;;19.90;1.00;;;;;;10489572;28;20249;-81
2022/07/18 17:27:25;;;;;;;4.50;3.70;;;19.90;1.00;;;;;;10482362;28;20207;-86
2022/07/18 17:32:46;;;;;;;13.90;3.92;;;19.80;1.00;;;;;;10478849;28;20202;-84
2022/07/18 17:38:13;;;;;;;13.18;6.40;;;19.70;1.00;;;;;;10481310;28;20517;-86
2022/07/18 17:43:36;;;;;;;9.82;6.97;;;19.70;1.00;;;;;;10480875;28;20192;-80
2022/07/18 17:48:58;;;;;;;9.32;4.95;;;19.60;1.00;;;;;;10480733;28;20206;-82
2022/07/18 17:54:19;;;;;;;6.38;5.05;;;19.50;1.00;;;;;;10463958;28;20191;-83
2022/07/18 17:59:42;;;;;;;9.38;4.93;;;19.40;1.00;;;;;;10464051;28;20277;-84
2022/07/18 18:05:06;;;;;;;6.45;3.75;;;19.30;1.00;;;;;;10476959;28;20195;-85
2022/07/18 18:10:28;;;;;;;6.88;3.70;;;19.30;1.00;;;;;;10478395;28;20250;-84
2022/07/18 18:15:49;;;;;;;3.92;3.28;;;19.30;1.00;;;;;;10465891;28;20237;-83
2022/07/18 18:21:11;;;;;;;4.53;3.05;;;19.20;1.00;;;;;;10490308;28;20277;-85
2022/07/18 18:26:32;;;;;;;5.35;3.50;;;19.20;1.00;;;;;;10478560;28;20196;-80
2022/07/18 18:31:55;;;;;;;4.95;3.67;;;19.20;1.00;;;;;;10479542;28;20187;-84
2022/07/18 18:37:16;;;;;;;3.97;2.88;;;19.10;1.00;;;;;;10463203;28;20203;-80
2022/07/18 18:42:38;;;;;;;4.95;3.30;;;19.10;1.00;;;;;;10462672;28;20424;-85
2022/07/18 18:48:00;;;;;;;4.18;3.20;;;19.10;1.00;;;;;;10479304;28;20200;-80
2022/07/18 18:53:21;;;;;;;4.90;3.63;;;19.10;1.00;;;;;;10462575;28;20195;-83
2022/07/18 18:58:42;;;;;;;5.22;3.40;;;19.00;1.00;;;;;;10479243;28;20556;-78
2022/07/18 19:04:04;;;;;;;4.70;3.53;;;19.00;1.00;;;;;;10476370;28;20216;-82
2022/07/18 19:09:25;;;;;;;5.93;3.58;;;19.00;1.00;;;;;;10476053;28;20235;-80
2022/07/18 19:14:46;;;;;;;4.60;3.28;;;18.90;1.00;;;;;;10478251;28;20234;-85
2022/07/18 19:20:10;;;;;;;5.47;3.72;;;18.90;1.00;;;;;;10461768;28;20269;-80
2022/07/18 19:25:31;;;;;;;3.58;3.13;;;18.80;1.00;;;;;;10497976;28;20200;-80
2022/07/18 19:30:53;;;;;;;7.53;4.55;;;18.80;1.00;;;;;;10472197;28;20196;-82
2022/07/18 19:36:14;;;;;;;4.55;3.63;;;18.70;1.00;;;;;;10470131;28;20377;-86
2022/07/18 19:41:36;;;;;;;6.65;3.67;;;18.80;1.00;;;;;;10483818;28;20246;-83
2022/07/18 19:46:57;;;;;;;5.78;3.70;;;18.80;1.00;;;;;;10487849;28;20188;-85
2022/07/18 19:52:18;;;;;;;5.03;3.70;;;18.80;1.00;;;;;;10498012;28;20180;-85
2022/07/18 19:57:40;;;;;;;4.72;3.65;;;18.70;1.00;;;;;;10483129;28;20220;-85
2022/07/18 20:03:02;;;;;;;5.20;4.22;;;18.70;1.00;;;;;;10485375;28;20201;-84
2022/07/18 20:08:23;;;;;;;5.07;4.25;;;18.70;1.00;;;;;;10469011;28;20198;-80
2022/07/18 20:13:45;;;;;;;6.40;5.00;;;18.70;1.00;;;;;;10482615;28;20219;-81
2022/07/18 20:19:06;;;;;;;8.05;4.53;;;18.70;1.00;;;;;;10458005;28;20601;-84
2022/07/18 20:24:28;;;;;;;7.70;4.82;;;18.60;1.00;;;;;;10490386;28;20195;-85
2022/07/18 20:29:51;;;;;;;7.68;4.90;;;18.60;1.00;;;;;;10483413;28;20436;-86
2022/07/18 20:35:13;;;;;;;9.88;6.65;;;18.60;1.00;;;;;;10484240;28;20192;-85
2022/07/18 20:40:35;;;;;;;10.55;6.00;;;18.50;1.00;;;;;;10481460;28;20412;-85
2022/07/18 20:45:56;;;;;;;10.35;5.97;;;18.60;1.00;;;;;;10483284;28;20270;-86
2022/07/18 20:51:17;;;;;;;13.95;6.40;;;18.50;1.00;;;;;;10467132;28;20206;-84
2022/07/18 20:56:39;;;;;;;8.40;5.80;;;18.50;1.00;;;;;;10466619;28;20198;-82
2022/07/18 21:02:00;;;;;;;9.55;5.97;;;18.50;1.00;;;;;;10482889;28;20258;-86
2022/07/18 21:07:21;;;;;;;14.90;7.43;;;18.50;1.00;;;;;;10480483;28;20199;-85
2022/07/18 21:12:43;;;;;;;11.52;6.40;;;18.40;1.00;;;;;;10494173;28;20240;-86
2022/07/18 21:18:06;;;;;;;7.68;5.35;;;18.30;12.80;;;;;;10497827;28;20219;-85
2022/07/18 21:23:27;;;;;;;8.95;5.00;;;18.30;24.70;;;;;;10479806;28;20211;-83
2022/07/18 21:28:49;;;;;;;8.93;5.20;;;18.30;34.60;;;;;;10481628;28;20191;-85
2022/07/18 21:34:10;;;;;;;37.90;13.05;;;18.30;32.20;;;;;;10479457;28;20203;-85
2022/07/18 21:39:31;;;;;;;22.17;9.18;;;18.20;36.60;;;;;;10464426;28;20223;-80
2022/07/18 21:44:55;;;;;;;11.25;6.30;;;18.20;37.00;;;;;;10479151;28;20366;-84
2022/07/18 21:50:16;;;;;;;7.97;5.43;;;18.20;57.90;;;;;;10481056;28;20199;-80
2022/07/18 21:55:38;;;;;;;7.88;5.18;;;18.20;54.50;;;;;;10478186;28;20516;-84
2022/07/18 22:00:59;;;;;;;13.95;6.65;;;18.20;42.10;;;;;;10492633;28;20254;-82
2022/07/18 22:06:21;;;;;;;14.18;7.57;;;18.20;46.30;;;;;;10463970;28;20191;-85
2022/07/18 22:11:43;;;;;;;11.00;5.75;;;18.20;41.90;;;;;;10478858;28;20238;-86
2022/07/18 22:17:05;;;;;;;7.20;5.05;;;18.20;32.50;;;;;;10463446;28;20203;-85
2022/07/18 22:22:27;;;;;;;7.88;5.45;;;18.20;32.90;;;;;;10479952;28;20227;-85
2022/07/18 22:27:48;;;;;;;5.45;4.35;;;18.20;34.10;;;;;;10480176;28;20581;-85
2022/07/18 22:33:09;;;;;;;10.52;6.90;;;18.20;37.70;;;;;;10477593;28;20482;-85
2022/07/18 22:38:30;;;;;;;15.40;9.20;;;18.20;32.40;;;;;;10491590;28;20215;-82
2022/07/18 22:43:51;;;;;;;12.95;7.90;;;18.20;38.00;;;;;;10462863;28;20271;-84
2022/07/18 22:49:13;;;;;;;9.70;6.53;;;18.20;45.40;;;;;;10477414;28;20196;-85
2022/07/18 22:54:34;;;;;;;6.88;4.95;;;18.20;53.00;;;;;;10480860;28;20191;-85
2022/07/18 22:59:55;;;;;;;7.15;5.07;;;18.20;57.80;;;;;;10474086;28;20227;-86
2022/07/18 23:05:22;;;;;;;8.45;6.15;;;18.10;89.10;;;;;;10485066;28;20199;-81
2022/07/18 23:10:45;;;;;;;8.43;5.43;;;18.10;75.20;;;;;;10485937;28;20235;-84
2022/07/18 23:16:07;;;;;;;6.70;5.55;;;18.10;71.50;;;;;;10470755;28;20253;-81
2022/07/18 23:21:28;;;;;;;6.45;5.00;;;18.10;77.40;;;;;;10500810;28;20227;-81
2022/07/18 23:26:50;;;;;;;6.93;5.53;;;18.10;86.30;;;;;;10470217;28;20203;-82
2022/07/18 23:32:11;;;;;;;9.52;6.40;;;18.10;90.20;;;;;;10498593;28;20241;-84
2022/07/18 23:37:34;;;;;;;9.57;6.95;;;18.00;95.80;;;;;;10472240;28;20199;-82
2022/07/18 23:42:56;;;;;;;9.32;5.60;;;18.00;92.30;;;;;;10484095;28;20395;-83
2022/07/18 23:48:18;;;;;;;9.45;5.57;;;18.00;88.80;;;;;;10458778;28;20502;-84
2022/07/18 23:53:39;;;;;;;7.68;4.95;;;18.00;87.60;;;;;;10442074;28;20219;-84
2022/07/18 23:59:01;;;;;;;10.30;5.50;;;18.00;91.70;;;;;;10458367;28;20270;-85
